Time;durP1;ratioP1;P1;durP2;ratioP2;P2;SDS_P1;SDS_P2;PMS_P1;PMS_P2;Temp;Humidity;BMP_temperature;BMP_pressure;BME280_temperature;BME280_humidity;BME280_pressure;Samples;Min_cycle;Max_cycle;Signal;HPM_P1;HPM_P2
2023/08/27 00:02:09;;;;;;;2.90;1.17;;;16.20;99.90;;;;;;4986691;28;20477;-69
2023/08/27 00:04:36;;;;;;;2.00;1.47;;;16.10;99.90;;;;;;4992429;28;20991;-68
2023/08/27 00:07:02;;;;;;;2.00;1.40;;;16.10;99.90;;;;;;4990901;28;20482;-69
2023/08/27 00:09:29;;;;;;;2.90;1.37;;;16.20;99.90;;;;;;4989797;28;21061;-69
2023/08/27 00:11:58;;;;;;;2.30;1.60;;;16.10;99.90;;;;;;4982646;28;20484;-69
2023/08/27 00:14:25;;;;;;;4.10;1.60;;;16.20;99.90;;;;;;5005473;28;20525;-69
2023/08/27 00:16:52;;;;;;;3.20;1.97;;;16.30;99.90;;;;;;4991222;28;20492;-69
2023/08/27 00:19:19;;;;;;;2.30;1.43;;;16.40;99.90;;;;;;4992091;28;20629;-68
2023/08/27 00:21:46;;;;;;;3.00;1.90;;;16.40;99.90;;;;;;4991569;28;20487;-68
2023/08/27 00:24:13;;;;;;;3.30;2.00;;;16.40;99.90;;;;;;4992285;28;20476;-69
2023/08/27 00:26:40;;;;;;;3.27;1.80;;;16.40;99.90;;;;;;4990876;28;20474;-69
2023/08/27 00:29:08;;;;;;;2.47;1.70;;;16.30;99.90;;;;;;4992353;28;20896;-68
2023/08/27 00:31:35;;;;;;;3.20;1.57;;;16.30;99.90;;;;;;4990972;28;20823;-68
2023/08/27 00:34:02;;;;;;;3.27;1.70;;;16.20;99.90;;;;;;4993596;28;20494;-69
2023/08/27 00:36:29;;;;;;;2.37;1.40;;;16.20;99.90;;;;;;4989445;28;20488;-69
2023/08/27 00:38:56;;;;;;;2.73;1.70;;;16.20;99.90;;;;;;4990012;28;20496;-68
2023/08/27 00:41:23;;;;;;;1.90;1.37;;;16.20;99.90;;;;;;4989532;28;20560;-68
2023/08/27 00:43:50;;;;;;;3.00;1.40;;;16.30;99.90;;;;;;4993448;28;20507;-68
2023/08/27 00:46:18;;;;;;;2.60;1.73;;;16.30;99.90;;;;;;4990654;28;20568;-69
2023/08/27 00:48:45;;;;;;;6.67;1.23;;;16.30;99.90;;;;;;4990501;28;20577;-68
2023/08/27 00:51:13;;;;;;;3.80;2.20;;;16.30;99.90;;;;;;4991680;28;21045;-68
2023/08/27 00:53:40;;;;;;;7.97;3.60;;;16.30;99.90;;;;;;4986751;28;20489;-68
2023/08/27 00:56:08;;;;;;;2.33;1.60;;;16.40;99.90;;;;;;5004390;28;20466;-68
2023/08/27 00:58:35;;;;;;;2.10;1.70;;;16.40;99.90;;;;;;4989750;28;21009;-69
2023/08/27 01:01:04;;;;;;;2.63;1.77;;;16.40;99.90;;;;;;4992925;28;20469;-69
2023/08/27 01:03:33;;;;;;;3.50;1.47;;;16.50;99.90;;;;;;4992182;28;20506;-69
2023/08/27 01:06:00;;;;;;;2.10;1.40;;;16.50;99.90;;;;;;4990885;28;21094;-68
2023/08/27 01:08:35;;;;;;;2.93;1.50;;;16.50;99.90;;;;;;4989489;28;20889;-68
2023/08/27 01:11:11;;;;;;;2.43;1.60;;;16.50;99.90;;;;;;4986745;28;20754;-68
2023/08/27 01:13:45;;;;;;;2.10;1.20;;;16.40;99.90;;;;;;4989885;28;20543;-68
2023/08/27 01:16:15;;;;;;;3.27;1.50;;;16.50;99.90;;;;;;4985613;28;21389;-68
2023/08/27 01:18:45;;;;;;;2.50;1.30;;;16.50;99.90;;;;;;5001507;28;20484;-68
2023/08/27 01:21:19;;;;;;;2.10;1.47;;;16.60;99.90;;;;;;4990183;28;20486;-68
2023/08/27 01:23:47;;;;;;;2.33;1.20;;;16.60;99.90;;;;;;4990752;28;20484;-68
2023/08/27 01:26:17;;;;;;;5.10;1.50;;;16.60;99.90;;;;;;4985876;28;20484;-69
2023/08/27 01:28:49;;;;;;;2.73;1.60;;;16.60;99.90;;;;;;4979565;28;20485;-67
2023/08/27 01:31:21;;;;;;;4.80;2.10;;;16.70;99.90;;;;;;4989076;28;20568;-68
2023/08/27 01:33:51;;;;;;;4.03;1.57;;;16.70;99.90;;;;;;4992621;28;20964;-68
2023/08/27 01:36:21;;;;;;;2.23;1.27;;;16.70;99.90;;;;;;4989614;28;20486;-69
2023/08/27 01:38:48;;;;;;;3.17;1.43;;;16.60;99.90;;;;;;4987272;28;20481;-68
2023/08/27 01:41:14;;;;;;;2.00;1.30;;;16.50;99.90;;;;;;4988139;28;20492;-68
2023/08/27 01:43:41;;;;;;;2.57;1.30;;;16.40;99.90;;;;;;4991417;28;20481;-68
2023/08/27 01:46:08;;;;;;;2.40;1.50;;;16.30;99.90;;;;;;4988838;28;22249;-69
2023/08/27 01:48:35;;;;;;;2.77;1.60;;;16.20;99.90;;;;;;4989178;28;20561;-68
2023/08/27 01:51:03;;;;;;;2.10;1.53;;;16.20;99.90;;;;;;4986483;28;20492;-68
2023/08/27 01:53:32;;;;;;;2.13;1.43;;;16.30;99.90;;;;;;4989855;28;20902;-68
2023/08/27 01:55:59;;;;;;;2.00;1.50;;;16.30;99.90;;;;;;4987439;28;20844;-68
2023/08/27 01:58:26;;;;;;;3.30;2.40;;;16.40;99.90;;;;;;4987252;28;20496;-68
2023/08/27 02:00:53;;;;;;;3.70;1.67;;;16.50;99.90;;;;;;4987823;28;20557;-68
2023/08/27 02:03:20;;;;;;;4.17;1.20;;;16.50;99.90;;;;;;4988332;28;20486;-68
2023/08/27 02:05:48;;;;;;;2.50;1.47;;;16.50;99.90;;;;;;4990016;28;20568;-68
2023/08/27 02:08:15;;;;;;;2.10;1.50;;;16.60;99.90;;;;;;4988560;28;20927;-68
2023/08/27 02:10:44;;;;;;;2.30;1.60;;;16.50;99.90;;;;;;4989339;28;20521;-69
2023/08/27 02:13:11;;;;;;;3.57;1.77;;;16.60;99.90;;;;;;4988599;28;20485;-68
2023/08/27 02:15:37;;;;;;;1.80;1.20;;;16.60;99.90;;;;;;4985571;28;21249;-68
2023/08/27 02:18:05;;;;;;;2.17;1.50;;;16.60;99.90;;;;;;4986851;28;20918;-68
2023/08/27 02:20:32;;;;;;;2.63;1.40;;;16.70;99.90;;;;;;4990780;28;20913;-68
2023/08/27 02:22:59;;;;;;;2.00;1.30;;;16.70;99.90;;;;;;4988380;28;20485;-68
2023/08/27 02:25:25;;;;;;;2.33;1.40;;;16.70;99.90;;;;;;4990991;28;21070;-68
2023/08/27 02:27:55;;;;;;;2.20;1.50;;;16.70;99.90;;;;;;4990655;28;20476;-68
2023/08/27 02:30:22;;;;;;;4.37;1.83;;;16.70;99.90;;;;;;4990404;28;20563;-68
2023/08/27 02:32:49;;;;;;;2.30;1.40;;;16.70;99.90;;;;;;4988165;28;20921;-68
2023/08/27 02:35:16;;;;;;;4.00;1.73;;;16.70;99.90;;;;;;4989112;28;20520;-68
2023/08/27 02:37:42;;;;;;;2.83;1.33;;;16.60;99.90;;;;;;4984571;28;21071;-68
2023/08/27 02:40:10;;;;;;;2.60;1.27;;;16.40;99.90;;;;;;4996124;28;20561;-68
2023/08/27 02:42:38;;;;;;;4.57;1.53;;;16.40;99.90;;;;;;4987651;28;20475;-68
2023/08/27 02:45:06;;;;;;;2.93;1.90;;;16.40;99.90;;;;;;4990541;28;20592;-68
2023/08/27 02:47:33;;;;;;;2.10;1.57;;;16.20;99.90;;;;;;4986907;28;21022;-68
2023/08/27 02:50:00;;;;;;;2.97;1.63;;;16.10;99.90;;;;;;4995804;28;20478;-68
2023/08/27 02:52:27;;;;;;;2.10;1.50;;;16.10;99.90;;;;;;4989921;28;20565;-68
2023/08/27 02:54:54;;;;;;;2.00;1.40;;;16.10;99.90;;;;;;4989178;28;20572;-68
2023/08/27 02:57:21;;;;;;;5.13;1.77;;;16.20;99.90;;;;;;4988850;28;20478;-68
2023/08/27 02:59:48;;;;;;;1.83;1.13;;;16.30;99.90;;;;;;4989144;28;20842;-68
2023/08/27 03:02:16;;;;;;;3.40;1.77;;;16.30;99.90;;;;;;4990466;28;20493;-68
2023/08/27 03:04:43;;;;;;;2.87;1.60;;;16.40;99.90;;;;;;4989301;28;20958;-68
2023/08/27 03:07:10;;;;;;;2.00;1.50;;;16.40;99.90;;;;;;4993148;28;25077;-68
2023/08/27 03:09:37;;;;;;;2.20;1.50;;;16.40;99.90;;;;;;4987306;28;20569;-68
2023/08/27 03:12:04;;;;;;;2.40;1.50;;;16.50;99.90;;;;;;4987699;28;20604;-68
2023/08/27 03:14:31;;;;;;;3.83;1.63;;;16.50;99.90;;;;;;4989446;28;20556;-68
2023/08/27 03:16:58;;;;;;;2.27;1.53;;;16.50;99.90;;;;;;4989186;28;20494;-68
2023/08/27 03:19:26;;;;;;;3.10;1.40;;;16.60;99.90;;;;;;4988871;28;20858;-68
2023/08/27 03:21:53;;;;;;;3.50;1.50;;;16.60;99.90;;;;;;4985910;28;20569;-68
2023/08/27 03:24:20;;;;;;;1.90;1.40;;;16.60;99.90;;;;;;4988580;28;20564;-68
2023/08/27 03:26:47;;;;;;;4.10;1.77;;;16.60;99.90;;;;;;4994667;28;21069;-68
2023/08/27 03:29:14;;;;;;;2.50;1.23;;;16.70;99.90;;;;;;4981650;28;21042;-68
2023/08/27 03:31:41;;;;;;;2.10;1.37;;;16.70;99.90;;;;;;5001709;28;20925;-68
2023/08/27 03:34:08;;;;;;;2.43;1.67;;;16.70;99.90;;;;;;4986311;28;20486;-68
2023/08/27 03:36:36;;;;;;;5.33;1.10;;;16.80;99.90;;;;;;4987100;28;20473;-68
2023/08/27 03:39:04;;;;;;;2.10;1.57;;;16.80;99.90;;;;;;4988486;28;20561;-68
2023/08/27 03:41:31;;;;;;;2.83;1.50;;;16.70;99.90;;;;;;4985890;28;20846;-68
2023/08/27 03:43:58;;;;;;;2.97;1.10;;;16.70;99.90;;;;;;4989311;28;20477;-68
2023/08/27 03:46:24;;;;;;;2.10;1.47;;;16.70;99.90;;;;;;4977308;28;21161;-68
2023/08/27 03:48:52;;;;;;;2.43;1.97;;;16.70;99.90;;;;;;4997685;28;20489;-68
2023/08/27 03:51:18;;;;;;;2.63;1.60;;;16.60;99.90;;;;;;4987969;28;20900;-68
2023/08/27 03:53:47;;;;;;;2.30;1.40;;;16.60;99.90;;;;;;4987552;28;20482;-68
2023/08/27 03:56:15;;;;;;;2.30;1.23;;;16.50;99.90;;;;;;4985449;28;20577;-68
2023/08/27 03:58:42;;;;;;;2.20;1.40;;;16.30;99.90;;;;;;4987572;28;20581;-68
2023/08/27 04:01:09;;;;;;;5.10;1.90;;;16.30;99.90;;;;;;4983774;28;20792;-68
2023/08/27 04:03:36;;;;;;;5.53;1.63;;;16.30;99.90;;;;;;4990957;28;20481;-68
2023/08/27 04:06:06;;;;;;;4.47;1.90;;;16.30;99.90;;;;;;4990044;28;20504;-68
2023/08/27 04:08:33;;;;;;;1.80;1.30;;;16.30;99.90;;;;;;4989154;28;20474;-68
2023/08/27 04:11:02;;;;;;;3.97;1.90;;;16.30;99.90;;;;;;4978645;28;20560;-68
2023/08/27 04:13:29;;;;;;;1.90;1.23;;;16.30;99.90;;;;;;5002628;28;20849;-68
2023/08/27 04:16:00;;;;;;;2.50;1.80;;;16.30;99.90;;;;;;4988352;28;20810;-68
2023/08/27 04:18:27;;;;;;;4.80;1.17;;;16.40;99.90;;;;;;4987733;28;20474;-68
2023/08/27 04:20:54;;;;;;;7.60;1.63;;;16.40;99.90;;;;;;4985464;28;20706;-68
2023/08/27 04:23:21;;;;;;;4.93;2.10;;;16.50;99.90;;;;;;4979683;28;20533;-68
2023/08/27 04:25:48;;;;;;;5.97;1.90;;;16.50;99.90;;;;;;4990457;28;20470;-68
2023/08/27 04:28:16;;;;;;;2.67;1.67;;;16.50;99.90;;;;;;4984041;28;21835;-68
2023/08/27 04:30:43;;;;;;;3.33;1.40;;;16.50;99.90;;;;;;4983849;28;20473;-68
2023/08/27 04:33:10;;;;;;;2.57;1.63;;;16.60;99.90;;;;;;4983765;28;21135;-68
2023/08/27 04:35:38;;;;;;;2.23;1.60;;;16.50;99.90;;;;;;4989657;28;20481;-68
2023/08/27 04:38:06;;;;;;;2.50;1.37;;;16.60;99.90;;;;;;4989892;28;20485;-68
2023/08/27 04:40:33;;;;;;;2.67;1.47;;;16.60;99.90;;;;;;4991042;28;20999;-68
2023/08/27 04:43:00;;;;;;;1.90;1.50;;;16.60;99.90;;;;;;4991666;28;21001;-68
2023/08/27 04:45:28;;;;;;;2.57;1.50;;;16.60;99.90;;;;;;4993143;28;20480;-68
2023/08/27 04:47:55;;;;;;;2.33;1.43;;;16.40;99.90;;;;;;4988979;28;20707;-68
2023/08/27 04:50:23;;;;;;;2.20;1.27;;;16.50;99.90;;;;;;4996114;28;20514;-68
2023/08/27 04:52:49;;;;;;;3.20;1.20;;;16.50;99.90;;;;;;4990476;28;20485;-68
2023/08/27 04:55:18;;;;;;;1.93;1.43;;;16.50;99.90;;;;;;4992729;28;20610;-68
2023/08/27 04:57:45;;;;;;;2.07;1.60;;;16.50;99.90;;;;;;4996140;28;21212;-68
2023/08/27 05:00:16;;;;;;;2.23;1.33;;;16.60;99.90;;;;;;4992652;28;20512;-67
2023/08/27 05:02:45;;;;;;;2.80;1.37;;;16.60;99.90;;;;;;4989882;28;20488;-68
2023/08/27 05:05:12;;;;;;;3.90;1.80;;;16.70;99.90;;;;;;4995684;28;20930;-68
2023/08/27 05:07:38;;;;;;;5.40;1.57;;;16.70;99.90;;;;;;4988753;28;20585;-68
2023/08/27 05:10:06;;;;;;;2.73;1.93;;;16.80;99.90;;;;;;4991790;28;20541;-68
2023/08/27 05:12:33;;;;;;;2.97;2.53;;;16.80;99.90;;;;;;4986174;28;20589;-68
2023/08/27 05:15:01;;;;;;;2.73;1.47;;;16.80;99.90;;;;;;4986146;28;20914;-68
2023/08/27 05:17:28;;;;;;;2.47;2.10;;;16.80;99.90;;;;;;4981703;28;20818;-68
2023/08/27 05:19:56;;;;;;;3.50;2.70;;;16.90;99.90;;;;;;4989796;28;20492;-68
2023/08/27 05:22:23;;;;;;;2.50;1.90;;;16.90;99.90;;;;;;4986067;28;20839;-67
2023/08/27 05:24:50;;;;;;;2.67;1.87;;;16.90;99.90;;;;;;4990213;28;20553;-68
2023/08/27 05:27:17;;;;;;;2.60;1.70;;;17.00;99.90;;;;;;4989122;28;20532;-68
2023/08/27 05:29:43;;;;;;;4.87;2.17;;;17.00;99.90;;;;;;4993788;28;20480;-68
2023/08/27 05:32:10;;;;;;;1.80;1.40;;;17.00;99.90;;;;;;4988763;28;20553;-67
2023/08/27 05:34:37;;;;;;;2.73;2.07;;;16.90;99.90;;;;;;4989702;28;21045;-68
2023/08/27 05:37:06;;;;;;;4.80;2.10;;;16.90;99.90;;;;;;4988771;28;20671;-67
2023/08/27 05:40:30;;;;;;;3.93;2.13;;;16.90;99.90;;;;;;4990597;28;20578;-67
2023/08/27 05:43:54;;;;;;;3.40;2.40;;;16.80;99.90;;;;;;4989976;28;20596;-67
2023/08/27 05:47:18;;;;;;;7.17;1.97;;;16.90;99.90;;;;;;4989543;28;20478;-67
2023/08/27 05:49:45;;;;;;;9.10;2.23;;;17.00;99.90;;;;;;4987988;28;20493;-67
2023/08/27 05:52:13;;;;;;;2.80;1.73;;;17.00;99.90;;;;;;4988070;28;20477;-68
2023/08/27 05:54:40;;;;;;;2.97;1.93;;;17.00;99.90;;;;;;4991372;28;20503;-67
2023/08/27 05:57:07;;;;;;;2.43;2.00;;;17.00;99.90;;;;;;4989138;28;20553;-68
2023/08/27 05:59:34;;;;;;;3.17;2.33;;;17.10;99.90;;;;;;4990942;28;20487;-67
2023/08/27 06:02:01;;;;;;;3.97;2.70;;;17.10;99.90;;;;;;4989311;28;20486;-67
2023/08/27 06:04:28;;;;;;;4.43;2.70;;;17.10;99.90;;;;;;4986606;28;20485;-68
2023/08/27 06:06:55;;;;;;;2.20;1.60;;;17.10;99.90;;;;;;4985400;28;20917;-68
2023/08/27 06:09:23;;;;;;;2.70;2.10;;;17.10;99.90;;;;;;4990804;28;20492;-68
2023/08/27 06:11:50;;;;;;;2.60;2.33;;;17.10;99.90;;;;;;4992100;28;21108;-67
2023/08/27 06:14:17;;;;;;;6.40;2.17;;;17.00;99.90;;;;;;4988191;28;20485;-68
2023/08/27 06:16:44;;;;;;;4.27;2.83;;;17.00;99.90;;;;;;4988198;28;20822;-68
2023/08/27 06:19:11;;;;;;;4.60;2.90;;;17.10;99.90;;;;;;4989619;28;20586;-68
2023/08/27 06:21:38;;;;;;;4.33;2.70;;;17.30;99.90;;;;;;4978504;28;20541;-68
2023/08/27 06:24:06;;;;;;;5.40;3.20;;;17.30;99.90;;;;;;4988018;28;20482;-68
2023/08/27 06:26:34;;;;;;;6.00;3.17;;;17.40;99.90;;;;;;4989619;28;20504;-68
2023/08/27 06:29:01;;;;;;;3.23;2.93;;;17.30;99.90;;;;;;4988768;28;20491;-68
2023/08/27 06:31:28;;;;;;;2.80;2.40;;;17.40;99.90;;;;;;4989691;28;20480;-68
2023/08/27 06:33:55;;;;;;;3.07;2.77;;;17.30;99.90;;;;;;4988886;28;20473;-67
2023/08/27 06:36:22;;;;;;;3.23;2.90;;;17.40;99.90;;;;;;4988356;28;20484;-68
2023/08/27 06:38:48;;;;;;;6.53;2.93;;;17.50;99.90;;;;;;4988381;28;20564;-68
2023/08/27 06:41:15;;;;;;;3.83;3.03;;;17.50;99.90;;;;;;4991635;28;21058;-68
2023/08/27 06:43:45;;;;;;;2.67;2.33;;;17.50;99.90;;;;;;4989874;28;20686;-68
2023/08/27 06:46:12;;;;;;;2.80;2.47;;;17.40;99.90;;;;;;4979964;28;20482;-67
2023/08/27 06:48:39;;;;;;;8.37;3.73;;;17.40;99.90;;;;;;4985561;28;20486;-67
2023/08/27 06:51:05;;;;;;;3.60;3.13;;;17.60;99.90;;;;;;4987736;28;20470;-67
2023/08/27 06:53:32;;;;;;;6.50;2.83;;;17.70;99.90;;;;;;4980968;28;20506;-67
2023/08/27 06:55:59;;;;;;;3.40;2.90;;;17.90;99.90;;;;;;4987742;28;21053;-67
2023/08/27 06:58:26;;;;;;;4.47;3.80;;;18.00;99.90;;;;;;4983384;28;20489;-67
2023/08/27 07:00:54;;;;;;;4.03;3.27;;;18.10;99.90;;;;;;4990609;28;20862;-67
2023/08/27 07:03:22;;;;;;;4.10;3.00;;;18.20;99.90;;;;;;4982851;28;20481;-67
2023/08/27 07:05:49;;;;;;;4.00;3.07;;;18.20;99.90;;;;;;4989918;28;21086;-67
2023/08/27 07:08:16;;;;;;;8.73;4.40;;;18.10;99.90;;;;;;4996622;28;20495;-68
2023/08/27 07:10:43;;;;;;;4.67;4.20;;;18.00;99.90;;;;;;4986691;28;20513;-68
2023/08/27 07:13:11;;;;;;;3.80;3.47;;;18.00;99.90;;;;;;4986811;28;20481;-68
2023/08/27 07:15:38;;;;;;;5.20;3.60;;;18.10;99.90;;;;;;4988531;28;20484;-68
2023/08/27 07:18:06;;;;;;;4.63;3.47;;;18.20;99.90;;;;;;4988044;28;20560;-68
2023/08/27 07:20:34;;;;;;;7.60;4.00;;;18.30;99.90;;;;;;4986895;28;20984;-68
2023/08/27 07:23:01;;;;;;;4.33;3.80;;;18.30;99.90;;;;;;4986693;28;21550;-68
2023/08/27 07:25:28;;;;;;;4.80;4.10;;;18.30;99.90;;;;;;4987045;28;20478;-68
2023/08/27 07:27:55;;;;;;;4.67;3.60;;;18.30;99.90;;;;;;4981503;28;20505;-68
2023/08/27 07:30:22;;;;;;;7.13;4.97;;;18.20;99.90;;;;;;4970335;28;20476;-68
2023/08/27 07:32:51;;;;;;;9.53;4.40;;;18.20;99.90;;;;;;4989384;28;20862;-68
2023/08/27 07:35:19;;;;;;;6.40;5.07;;;18.20;99.90;;;;;;4989295;28;20577;-67
2023/08/27 07:37:46;;;;;;;9.30;5.60;;;18.20;99.90;;;;;;4986550;28;20560;-68
2023/08/27 07:40:13;;;;;;;4.87;4.30;;;18.30;99.90;;;;;;4985862;28;20583;-68
2023/08/27 07:42:40;;;;;;;5.80;4.30;;;18.50;99.90;;;;;;4996418;28;20577;-67
2023/08/27 07:45:08;;;;;;;6.57;4.40;;;18.60;99.90;;;;;;4991877;28;20480;-67
2023/08/27 07:47:36;;;;;;;5.70;3.83;;;18.70;99.90;;;;;;4988195;28;20509;-67
2023/08/27 07:50:03;;;;;;;5.60;4.53;;;18.80;99.90;;;;;;4990187;28;20473;-68
2023/08/27 07:52:31;;;;;;;6.10;4.30;;;18.90;99.90;;;;;;4990103;28;20497;-68
2023/08/27 07:54:58;;;;;;;4.07;3.57;;;19.00;99.90;;;;;;4990817;28;20486;-68
2023/08/27 07:57:25;;;;;;;5.80;4.17;;;19.00;99.90;;;;;;4989930;28;20883;-68
2023/08/27 07:59:54;;;;;;;5.10;4.57;;;19.10;99.90;;;;;;4986817;28;20848;-68
2023/08/27 08:02:20;;;;;;;4.90;3.90;;;19.30;99.90;;;;;;4999063;28;20855;-67
2023/08/27 08:04:48;;;;;;;4.97;4.33;;;19.40;99.90;;;;;;4993007;28;20572;-68
2023/08/27 08:07:14;;;;;;;7.70;4.07;;;19.50;99.90;;;;;;4990464;28;20508;-68
2023/08/27 08:09:43;;;;;;;5.77;4.17;;;19.60;99.90;;;;;;4992348;28;20492;-68
2023/08/27 08:12:10;;;;;;;5.03;3.90;;;19.60;99.90;;;;;;4992636;28;20572;-68
2023/08/27 08:14:37;;;;;;;6.00;4.23;;;19.60;99.90;;;;;;4993578;28;20549;-68
2023/08/27 08:17:04;;;;;;;4.83;3.80;;;19.60;99.90;;;;;;4990873;28;20469;-67
2023/08/27 08:19:31;;;;;;;4.37;3.40;;;19.60;99.90;;;;;;4995005;28;21042;-68
2023/08/27 08:21:58;;;;;;;4.10;3.40;;;19.70;99.90;;;;;;4973064;28;21138;-67
2023/08/27 08:24:25;;;;;;;5.53;3.80;;;19.80;99.90;;;;;;4994897;28;20871;-67
2023/08/27 08:26:53;;;;;;;5.90;3.93;;;19.90;99.90;;;;;;4977772;28;20496;-69
2023/08/27 08:29:21;;;;;;;9.60;4.00;;;19.80;99.90;;;;;;5000739;28;21377;-68
2023/08/27 08:31:48;;;;;;;4.23;3.40;;;19.80;99.90;;;;;;4992108;28;20819;-67
2023/08/27 08:34:15;;;;;;;5.07;3.20;;;19.80;99.90;;;;;;4990025;28;20489;-67
2023/08/27 08:36:42;;;;;;;6.73;4.20;;;19.80;99.90;;;;;;4991634;28;20555;-67
2023/08/27 08:39:09;;;;;;;5.63;3.63;;;19.90;99.90;;;;;;4989876;28;20478;-69
2023/08/27 08:41:41;;;;;;;6.00;4.47;;;19.80;99.90;;;;;;4991180;28;20481;-67
2023/08/27 08:44:19;;;;;;;4.63;4.23;;;19.80;99.90;;;;;;4988710;28;20482;-67
2023/08/27 08:46:48;;;;;;;4.00;3.33;;;19.60;99.90;;;;;;4993806;28;20480;-67
2023/08/27 08:49:16;;;;;;;6.83;4.10;;;19.60;99.90;;;;;;4985511;28;20466;-69
2023/08/27 08:51:44;;;;;;;3.90;3.47;;;19.60;99.90;;;;;;4989869;28;20943;-66
2023/08/27 08:54:15;;;;;;;7.00;3.47;;;19.40;99.90;;;;;;4992099;28;20844;-67
2023/08/27 08:56:48;;;;;;;5.20;3.37;;;19.40;99.90;;;;;;4990215;28;20477;-67
2023/08/27 08:59:16;;;;;;;3.80;3.20;;;19.50;99.90;;;;;;4989590;28;20482;-68
2023/08/27 09:01:43;;;;;;;4.17;3.77;;;19.60;99.90;;;;;;4989210;28;20489;-67
2023/08/27 09:04:12;;;;;;;7.77;3.80;;;19.80;99.90;;;;;;4986880;28;20564;-67
2023/08/27 09:06:41;;;;;;;6.37;4.50;;;19.80;99.90;;;;;;4986829;28;20839;-66
2023/08/27 09:09:09;;;;;;;8.20;5.13;;;19.80;99.90;;;;;;4989760;28;20613;-68
2023/08/27 09:11:37;;;;;;;5.67;4.43;;;19.80;99.90;;;;;;4981635;28;20474;-67
2023/08/27 09:14:04;;;;;;;6.30;5.17;;;19.80;99.90;;;;;;4997393;28;20473;-67
2023/08/27 09:16:33;;;;;;;6.37;4.67;;;19.90;99.90;;;;;;4989575;28;20865;-67
2023/08/27 09:19:00;;;;;;;4.37;4.00;;;19.90;99.90;;;;;;4991389;28;20476;-67
2023/08/27 09:21:27;;;;;;;5.67;3.93;;;20.00;99.90;;;;;;4990628;28;20481;-67
2023/08/27 09:23:55;;;;;;;8.20;5.60;;;20.10;99.90;;;;;;4982304;28;20575;-67
2023/08/27 09:26:22;;;;;;;4.10;3.70;;;20.20;99.90;;;;;;5001974;28;21229;-68
2023/08/27 09:28:49;;;;;;;6.83;4.67;;;20.40;99.90;;;;;;4992400;28;20494;-68
2023/08/27 09:31:38;;;;;;;9.67;5.30;;;20.50;99.90;;;;;;4990400;28;20892;-68
2023/08/27 09:34:05;;;;;;;10.47;5.37;;;20.60;99.90;;;;;;4991361;28;20557;-68
2023/08/27 09:36:33;;;;;;;4.90;4.50;;;20.70;99.90;;;;;;4991567;28;20486;-67
2023/08/27 09:39:08;;;;;;;5.70;4.77;;;20.70;99.90;;;;;;4982819;28;21022;-67
2023/08/27 09:41:37;;;;;;;5.67;5.00;;;20.70;99.90;;;;;;4988157;28;20476;-67
2023/08/27 09:44:05;;;;;;;9.73;4.30;;;20.80;99.90;;;;;;4989264;28;20545;-67
2023/08/27 09:46:32;;;;;;;8.07;3.93;;;21.10;99.90;;;;;;4988393;28;20574;-68
2023/08/27 09:49:01;;;;;;;10.17;4.67;;;21.10;99.90;;;;;;4980885;28;21061;-67
2023/08/27 09:51:29;;;;;;;6.40;4.50;;;21.20;99.90;;;;;;4999042;28;20482;-67
2023/08/27 09:53:56;;;;;;;4.80;4.07;;;21.30;99.90;;;;;;4975480;28;20481;-68
2023/08/27 09:56:24;;;;;;;4.83;4.33;;;21.30;99.90;;;;;;4988096;28;20673;-68
2023/08/27 09:58:52;;;;;;;4.30;3.53;;;21.40;99.90;;;;;;4984106;28;20916;-67
2023/08/27 10:01:19;;;;;;;4.23;3.83;;;21.50;99.90;;;;;;4981338;28;20483;-68
2023/08/27 10:03:47;;;;;;;4.93;4.33;;;21.50;99.90;;;;;;4996912;28;20493;-68
2023/08/27 10:06:15;;;;;;;7.70;4.23;;;21.60;99.90;;;;;;4987045;28;20480;-68
2023/08/27 10:08:55;;;;;;;5.10;4.60;;;21.70;99.90;;;;;;4988683;28;20582;-68
2023/08/27 10:11:23;;;;;;;6.40;4.40;;;21.70;99.90;;;;;;4992242;28;21005;-67
2023/08/27 10:13:50;;;;;;;4.17;3.80;;;21.60;99.90;;;;;;4991109;28;20480;-70
2023/08/27 10:16:18;;;;;;;4.63;3.47;;;21.50;99.90;;;;;;4989208;28;20901;-68
2023/08/27 10:18:47;;;;;;;5.07;3.80;;;21.50;99.90;;;;;;4989237;28;20483;-68
2023/08/27 10:21:16;;;;;;;4.43;4.03;;;21.50;99.90;;;;;;4991386;28;20576;-67
2023/08/27 10:23:43;;;;;;;4.13;3.83;;;21.50;99.90;;;;;;4988189;28;20500;-68
2023/08/27 10:26:11;;;;;;;4.13;3.83;;;21.40;99.90;;;;;;4987278;28;20536;-68
2023/08/27 10:28:39;;;;;;;4.10;3.70;;;21.30;99.90;;;;;;4991699;28;20891;-68
2023/08/27 10:31:07;;;;;;;8.43;4.60;;;21.20;99.90;;;;;;4990167;28;21217;-68
2023/08/27 10:33:34;;;;;;;5.80;4.73;;;21.30;99.90;;;;;;4988261;28;20589;-68
2023/08/27 10:36:04;;;;;;;4.20;3.80;;;21.30;99.90;;;;;;4988128;28;20602;-68
2023/08/27 10:38:35;;;;;;;5.00;4.50;;;21.40;99.90;;;;;;4990993;28;20944;-68
2023/08/27 10:41:02;;;;;;;9.87;5.20;;;21.50;99.90;;;;;;4990123;28;21042;-70
2023/08/27 10:43:33;;;;;;;8.10;4.73;;;21.50;99.90;;;;;;4988821;28;20510;-67
2023/08/27 10:46:11;;;;;;;5.37;3.50;;;21.40;99.90;;;;;;4989241;28;20551;-69
2023/08/27 10:48:38;;;;;;;6.03;3.67;;;21.40;99.90;;;;;;4977544;28;21174;-67
2023/08/27 10:51:10;;;;;;;9.10;4.40;;;21.40;99.90;;;;;;4990783;28;20545;-68
2023/08/27 10:53:53;;;;;;;5.00;4.00;;;21.20;99.90;;;;;;4978796;28;20945;-68
2023/08/27 10:56:28;;;;;;;5.60;4.17;;;21.40;99.90;;;;;;4988713;28;20484;-68
2023/08/27 10:58:58;;;;;;;3.70;3.10;;;21.30;99.90;;;;;;4988414;28;20494;-67
2023/08/27 11:01:25;;;;;;;5.10;3.53;;;21.20;99.90;;;;;;4981309;28;21161;-67
2023/08/27 11:03:56;;;;;;;2.87;2.30;;;21.00;99.90;;;;;;4990724;28;20568;-67
2023/08/27 11:06:45;;;;;;;4.83;2.73;;;21.10;99.90;;;;;;4988327;28;20991;-68
2023/08/27 11:09:15;;;;;;;4.50;2.67;;;21.20;99.90;;;;;;4973996;28;21040;-69
2023/08/27 11:11:45;;;;;;;5.83;2.73;;;21.20;99.90;;;;;;4977871;28;20906;-68
2023/08/27 11:14:14;;;;;;;2.43;2.23;;;21.20;99.90;;;;;;4993987;28;20980;-68
2023/08/27 11:16:46;;;;;;;2.73;2.53;;;21.40;99.90;;;;;;4989627;28;21406;-68
2023/08/27 11:19:13;;;;;;;2.97;1.73;;;21.40;99.90;;;;;;4978023;28;20484;-67
2023/08/27 11:21:47;;;;;;;2.33;2.13;;;21.20;99.90;;;;;;4986792;28;20490;-68
2023/08/27 11:24:17;;;;;;;4.53;1.87;;;21.30;99.90;;;;;;4977691;28;20496;-67
2023/08/27 11:26:46;;;;;;;5.07;1.90;;;21.50;99.90;;;;;;4974770;28;20719;-67
2023/08/27 11:29:13;;;;;;;3.93;2.07;;;21.60;99.90;;;;;;4991667;28;20481;-67
2023/08/27 11:31:40;;;;;;;2.80;2.17;;;21.60;99.90;;;;;;4992811;28;20920;-67
2023/08/27 11:34:08;;;;;;;4.10;2.63;;;21.70;99.90;;;;;;4983827;28;20917;-67
2023/08/27 11:36:35;;;;;;;2.40;1.70;;;21.70;99.80;;;;;;4990306;28;21253;-67
2023/08/27 11:39:03;;;;;;;2.80;1.73;;;21.80;99.90;;;;;;4992316;28;20578;-67
2023/08/27 11:41:43;;;;;;;2.17;1.40;;;21.90;99.30;;;;;;4991981;28;20485;-68
2023/08/27 11:44:11;;;;;;;4.47;2.07;;;21.90;99.30;;;;;;4989218;28;20478;-68
2023/08/27 11:46:39;;;;;;;3.30;1.83;;;21.90;98.90;;;;;;4991170;28;20818;-67
2023/08/27 11:49:07;;;;;;;2.10;1.40;;;21.80;98.80;;;;;;4989376;28;20503;-68
2023/08/27 11:51:35;;;;;;;4.33;2.20;;;21.60;98.60;;;;;;4991306;28;21206;-68
2023/08/27 11:54:06;;;;;;;2.77;1.47;;;21.60;98.30;;;;;;4988210;28;20505;-67
2023/08/27 11:56:36;;;;;;;3.60;1.53;;;21.50;98.80;;;;;;4993157;28;20654;-69
2023/08/27 11:59:04;;;;;;;2.23;1.60;;;21.50;98.90;;;;;;4991116;28;20453;-68
2023/08/27 12:01:32;;;;;;;1.70;1.00;;;21.50;98.40;;;;;;4989631;28;20489;-68
2023/08/27 12:03:59;;;;;;;2.30;1.30;;;21.50;99.20;;;;;;4984656;28;20490;-67
2023/08/27 12:06:28;;;;;;;2.67;1.30;;;21.50;98.20;;;;;;4976955;28;21261;-69
2023/08/27 12:08:56;;;;;;;2.20;1.20;;;21.50;98.50;;;;;;4993630;28;20887;-68
2023/08/27 12:11:26;;;;;;;3.00;1.37;;;21.60;97.80;;;;;;4978154;28;20886;-68
2023/08/27 12:13:57;;;;;;;2.10;1.40;;;21.60;97.60;;;;;;4979086;28;20473;-67
2023/08/27 12:16:33;;;;;;;2.80;1.50;;;21.60;97.70;;;;;;4980619;28;21099;-68
2023/08/27 12:19:05;;;;;;;2.77;1.53;;;21.70;98.00;;;;;;4980697;28;20556;-69
2023/08/27 12:21:47;;;;;;;2.20;1.57;;;21.80;98.30;;;;;;4990894;28;21016;-68
2023/08/27 12:24:27;;;;;;;2.33;1.20;;;21.80;98.40;;;;;;4990065;28;21423;-67
2023/08/27 12:26:54;;;;;;;1.97;1.13;;;21.80;97.70;;;;;;4989762;28;20522;-67
2023/08/27 12:29:21;;;;;;;2.07;1.20;;;21.80;98.20;;;;;;4990688;28;20847;-68
2023/08/27 12:31:53;;;;;;;3.90;1.40;;;21.90;98.20;;;;;;4992347;28;20937;-68
2023/08/27 12:34:19;;;;;;;1.93;1.30;;;21.70;98.20;;;;;;4991091;28;20650;-67
2023/08/27 12:36:46;;;;;;;5.03;1.50;;;21.60;98.20;;;;;;4990652;28;20998;-68
2023/08/27 12:39:13;;;;;;;3.77;2.03;;;21.60;98.00;;;;;;4991659;28;21018;-68
2023/08/27 12:41:40;;;;;;;6.33;1.70;;;21.70;98.40;;;;;;4991192;28;20828;-67
2023/08/27 12:44:07;;;;;;;2.20;1.40;;;21.70;97.90;;;;;;4992441;28;20460;-68
2023/08/27 12:46:36;;;;;;;2.40;1.70;;;21.80;98.30;;;;;;4991249;28;21130;-68
2023/08/27 12:49:04;;;;;;;2.53;1.27;;;21.90;97.90;;;;;;4992022;28;20474;-67
2023/08/27 12:51:32;;;;;;;2.50;1.23;;;21.90;98.20;;;;;;4993007;28;20482;-68
2023/08/27 12:53:59;;;;;;;3.90;1.43;;;21.80;98.20;;;;;;4990647;28;20460;-67
2023/08/27 12:56:27;;;;;;;2.97;1.40;;;21.90;98.50;;;;;;4990994;28;20989;-67